Time;durP1;ratioP1;P1;durP2;ratioP2;P2;SDS_P1;SDS_P2;PMS_P1;PMS_P2;Temp;Humidity;BMP_temperature;BMP_pressure;BME280_temperature;BME280_humidity;BME280_pressure;Samples;Min_cycle;Max_cycle;Signal;HPM_P1;HPM_P2
2023/06/19 00:00:15;;;;;;;13.13;9.20;;;24.60;60.20;;;;;;5012226;28;20032;-51
2023/06/19 00:02:42;;;;;;;10.70;8.35;;;24.60;60.10;;;;;;5012551;28;20050;-50
2023/06/19 00:05:08;;;;;;;10.77;9.07;;;24.60;60.40;;;;;;5012227;28;20022;-51
2023/06/19 00:07:35;;;;;;;9.30;8.25;;;24.60;60.60;;;;;;5012289;28;20061;-51
2023/06/19 00:10:01;;;;;;;10.57;8.43;;;24.60;60.70;;;;;;5012072;28;20076;-49
2023/06/19 00:12:27;;;;;;;10.27;8.77;;;24.60;61.50;;;;;;5012068;28;20104;-51
2023/06/19 00:14:52;;;;;;;11.07;8.40;;;24.60;60.90;;;;;;5011850;28;20057;-52
2023/06/19 00:17:18;;;;;;;9.60;7.88;;;24.50;60.70;;;;;;5012196;28;20036;-51
2023/06/19 00:19:44;;;;;;;10.93;7.82;;;24.50;60.60;;;;;;5012038;28;20030;-50
2023/06/19 00:22:10;;;;;;;10.93;8.20;;;24.50;60.50;;;;;;5012095;28;20034;-53
2023/06/19 00:24:36;;;;;;;10.07;8.60;;;24.50;61.00;;;;;;5011858;28;20080;-51
2023/06/19 00:27:02;;;;;;;9.00;8.02;;;24.40;61.10;;;;;;5011799;28;20033;-50
2023/06/19 00:29:29;;;;;;;10.68;8.10;;;24.40;61.30;;;;;;5010781;28;20076;-54
2023/06/19 00:31:54;;;;;;;8.77;7.57;;;24.40;61.40;;;;;;5011656;28;20086;-53
2023/06/19 00:34:20;;;;;;;10.00;8.25;;;24.40;61.90;;;;;;5011750;28;20084;-50
2023/06/19 00:36:46;;;;;;;10.40;8.48;;;24.30;62.00;;;;;;5011594;28;20512;-53
2023/06/19 00:39:12;;;;;;;9.20;7.85;;;24.30;62.20;;;;;;5011536;28;20026;-50
2023/06/19 00:41:39;;;;;;;10.95;8.75;;;24.30;62.20;;;;;;5011950;28;20120;-51
2023/06/19 00:44:05;;;;;;;9.25;7.75;;;24.20;62.20;;;;;;5011534;28;20024;-52
2023/06/19 00:46:31;;;;;;;8.65;7.75;;;24.20;62.10;;;;;;5011891;28;20104;-50
2023/06/19 00:48:57;;;;;;;9.50;8.07;;;24.20;62.00;;;;;;5011744;28;20018;-53
2023/06/19 00:51:23;;;;;;;10.35;7.93;;;24.10;61.60;;;;;;5011537;28;20057;-52
2023/06/19 00:53:49;;;;;;;10.35;7.80;;;24.10;61.30;;;;;;5011568;28;20072;-53
2023/06/19 00:56:18;;;;;;;10.68;7.63;;;24.10;61.00;;;;;;5011460;28;20026;-50
2023/06/19 00:58:44;;;;;;;12.00;8.10;;;24.00;60.70;;;;;;5011693;28;20425;-52
2023/06/19 01:01:10;;;;;;;9.57;8.35;;;24.00;60.50;;;;;;5011618;28;20107;-51
2023/06/19 01:03:36;;;;;;;9.98;7.72;;;24.00;60.30;;;;;;5011313;28;20030;-48
2023/06/19 01:06:05;;;;;;;8.40;7.47;;;24.00;60.00;;;;;;5011315;28;20022;-50
2023/06/19 01:08:36;;;;;;;9.85;8.32;;;24.00;59.60;;;;;;5011355;28;20481;-52
2023/06/19 01:11:03;;;;;;;9.45;7.47;;;24.00;59.30;;;;;;5011434;28;20393;-52
2023/06/19 01:13:40;;;;;;;10.77;8.25;;;23.90;59.00;;;;;;5011494;28;20432;-50
2023/06/19 01:16:07;;;;;;;9.65;7.88;;;23.90;58.80;;;;;;5011303;28;20069;-50
2023/06/19 01:18:33;;;;;;;9.90;7.25;;;23.90;58.70;;;;;;5011605;28;20113;-50
2023/06/19 01:21:11;;;;;;;10.82;8.00;;;23.90;58.40;;;;;;5011529;28;20030;-49
2023/06/19 01:23:36;;;;;;;15.73;8.30;;;23.80;58.20;;;;;;5011480;28;20482;-50
2023/06/19 01:26:02;;;;;;;9.75;7.80;;;23.80;58.00;;;;;;5011236;28;20121;-51
2023/06/19 01:28:28;;;;;;;11.38;9.38;;;23.80;57.90;;;;;;5011081;28;20036;-50
2023/06/19 01:30:58;;;;;;;11.18;9.38;;;23.80;57.70;;;;;;5011150;28;20029;-51
2023/06/19 01:33:28;;;;;;;11.82;10.52;;;23.80;57.50;;;;;;5011405;28;20056;-54
2023/06/19 01:35:56;;;;;;;12.75;11.05;;;23.70;57.40;;;;;;5011400;28;20436;-50
2023/06/19 01:38:25;;;;;;;12.23;10.80;;;23.70;57.30;;;;;;5010985;28;20385;-51
2023/06/19 01:40:53;;;;;;;12.02;10.10;;;23.70;57.30;;;;;;5011335;28;20061;-51
2023/06/19 01:43:20;;;;;;;12.27;10.25;;;23.60;57.30;;;;;;5011085;28;20501;-51
2023/06/19 01:45:45;;;;;;;12.85;9.88;;;23.60;57.50;;;;;;5011102;28;20682;-49
2023/06/19 01:48:11;;;;;;;11.65;9.85;;;23.60;57.70;;;;;;5012106;28;20164;-52
2023/06/19 01:50:37;;;;;;;9.95;8.93;;;23.60;57.90;;;;;;5014544;28;20480;-50
2023/06/19 01:53:03;;;;;;;11.15;9.02;;;23.60;58.20;;;;;;5014585;28;20026;-51
2023/06/19 01:55:28;;;;;;;10.00;8.57;;;23.60;58.30;;;;;;5014712;28;20026;-52
2023/06/19 01:57:54;;;;;;;10.90;8.73;;;23.50;58.20;;;;;;5014706;28;20169;-52
2023/06/19 02:00:20;;;;;;;10.02;8.52;;;23.60;58.40;;;;;;5014365;28;20038;-49
2023/06/19 02:02:45;;;;;;;9.27;8.23;;;23.50;58.40;;;;;;5014397;28;20521;-52
2023/06/19 02:05:13;;;;;;;9.70;8.18;;;23.50;58.40;;;;;;5014636;28;20056;-53
2023/06/19 02:07:39;;;;;;;10.65;8.25;;;23.50;58.50;;;;;;5014469;28;20127;-51
2023/06/19 02:10:05;;;;;;;10.90;8.90;;;23.50;58.50;;;;;;5014616;28;20073;-49
2023/06/19 02:12:31;;;;;;;11.48;8.18;;;23.50;58.40;;;;;;5014278;28;20492;-51
2023/06/19 02:14:57;;;;;;;10.85;8.15;;;23.50;58.40;;;;;;5013085;28;20062;-48
2023/06/19 02:17:22;;;;;;;12.10;8.38;;;23.50;58.40;;;;;;5012293;28;20026;-50
2023/06/19 02:19:48;;;;;;;9.52;7.85;;;23.50;58.40;;;;;;5012323;28;20057;-50
2023/06/19 02:22:13;;;;;;;10.05;8.95;;;23.50;58.30;;;;;;5012265;28;20096;-52
2023/06/19 02:24:39;;;;;;;12.45;9.10;;;23.50;58.30;;;;;;5012571;28;20558;-50
2023/06/19 02:27:05;;;;;;;12.48;9.50;;;23.60;58.30;;;;;;5012273;28;20393;-48
2023/06/19 02:29:33;;;;;;;11.43;9.60;;;23.60;58.10;;;;;;5011189;28;20297;-47
2023/06/19 02:31:59;;;;;;;11.25;9.68;;;23.60;57.80;;;;;;5009930;28;20405;-50
2023/06/19 02:34:25;;;;;;;10.45;8.95;;;23.60;57.70;;;;;;5013756;28;20048;-52
2023/06/19 02:36:51;;;;;;;12.85;9.45;;;23.60;58.30;;;;;;5013922;28;20421;-50
2023/06/19 02:39:18;;;;;;;11.02;9.25;;;23.60;57.90;;;;;;5013258;28;20433;-52
2023/06/19 02:41:45;;;;;;;12.10;9.52;;;23.60;57.60;;;;;;5013402;28;20022;-50
2023/06/19 02:44:12;;;;;;;13.10;9.65;;;23.70;57.60;;;;;;5013903;28;20026;-52
2023/06/19 02:46:37;;;;;;;10.93;8.63;;;23.70;57.50;;;;;;5013502;28;20442;-50
2023/06/19 02:49:03;;;;;;;11.07;9.82;;;23.70;57.60;;;;;;5013525;28;20034;-50
2023/06/19 02:51:29;;;;;;;12.82;9.70;;;23.70;57.50;;;;;;5013653;28;20029;-50
2023/06/19 02:53:55;;;;;;;14.10;11.40;;;23.70;57.70;;;;;;5013429;28;20034;-52
2023/06/19 02:56:20;;;;;;;13.60;11.30;;;23.70;57.80;;;;;;5013452;28;20030;-51
2023/06/19 02:58:46;;;;;;;12.27;10.77;;;23.70;57.80;;;;;;5012689;28;20490;-51
2023/06/19 03:01:12;;;;;;;14.73;10.88;;;23.70;57.80;;;;;;5012587;28;20477;-52
2023/06/19 03:03:38;;;;;;;13.35;11.00;;;23.70;57.60;;;;;;5013263;28;20075;-50
2023/06/19 03:06:07;;;;;;;11.57;10.35;;;23.70;57.70;;;;;;5013228;28;20491;-51
2023/06/19 03:08:34;;;;;;;12.60;10.85;;;23.70;57.70;;;;;;5013127;28;20030;-49
2023/06/19 03:11:00;;;;;;;12.35;10.50;;;23.80;57.90;;;;;;5013400;28;20038;-52
2023/06/19 03:13:25;;;;;;;12.88;10.43;;;23.80;57.60;;;;;;5013435;28;20026;-51
2023/06/19 03:15:51;;;;;;;14.52;10.93;;;23.80;57.50;;;;;;5013017;28;20088;-52
2023/06/19 03:18:17;;;;;;;12.77;10.32;;;23.80;57.50;;;;;;5012855;28;20113;-48
2023/06/19 03:20:42;;;;;;;12.20;9.93;;;23.80;57.50;;;;;;5013047;28;20073;-51
2023/06/19 03:23:08;;;;;;;12.05;10.70;;;23.80;57.60;;;;;;5012940;28;20432;-50
2023/06/19 03:25:34;;;;;;;13.93;11.57;;;23.90;57.70;;;;;;5013158;28;20079;-53
2023/06/19 03:28:04;;;;;;;17.08;11.75;;;23.90;57.70;;;;;;5013084;28;20037;-50
2023/06/19 03:30:30;;;;;;;15.43;12.45;;;24.00;58.00;;;;;;5011959;28;20030;-51
2023/06/19 03:32:56;;;;;;;15.57;12.65;;;24.10;57.90;;;;;;5012504;28;20029;-53
2023/06/19 03:35:21;;;;;;;17.13;13.90;;;24.20;57.80;;;;;;5012814;28;20041;-53
2023/06/19 03:37:47;;;;;;;19.05;14.65;;;24.30;58.00;;;;;;5012894;28;20032;-50
2023/06/19 03:40:13;;;;;;;18.58;15.98;;;24.60;58.30;;;;;;5012671;28;20378;-53
2023/06/19 03:42:40;;;;;;;17.88;14.68;;;25.10;58.00;;;;;;5012646;28;20105;-51
2023/06/19 03:45:06;;;;;;;18.05;15.02;;;25.60;57.30;;;;;;5012699;28;20118;-50
2023/06/19 03:47:32;;;;;;;19.55;13.48;;;26.20;56.70;;;;;;5012798;28;20026;-51
2023/06/19 03:49:57;;;;;;;16.05;12.93;;;27.00;56.10;;;;;;5011815;28;20358;-53
2023/06/19 03:52:23;;;;;;;15.60;11.48;;;27.80;55.40;;;;;;5010167;28;20469;-53
2023/06/19 03:54:49;;;;;;;12.93;10.35;;;28.60;54.40;;;;;;5010741;28;20026;-52
2023/06/19 03:57:15;;;;;;;12.25;10.25;;;29.40;53.80;;;;;;5010698;28;20033;-53
2023/06/19 03:59:41;;;;;;;10.02;8.95;;;30.00;53.10;;;;;;5010210;28;20386;-50
2023/06/19 04:02:06;;;;;;;10.57;8.40;;;30.60;52.60;;;;;;5010324;28;20064;-50
2023/06/19 04:04:32;;;;;;;11.15;8.27;;;31.30;52.20;;;;;;5010779;28;20434;-53
2023/06/19 04:06:59;;;;;;;9.00;7.75;;;31.80;51.70;;;;;;5010558;28;20053;-49
2023/06/19 04:09:24;;;;;;;9.13;7.63;;;32.20;51.30;;;;;;5012360;28;20041;-52
2023/06/19 04:11:50;;;;;;;8.85;7.57;;;32.60;51.10;;;;;;5011825;28;20120;-52
2023/06/19 04:14:16;;;;;;;9.13;7.45;;;33.00;50.80;;;;;;5011801;28;20130;-51
2023/06/19 04:16:41;;;;;;;8.82;7.05;;;33.40;50.60;;;;;;5011901;28;20033;-51
2023/06/19 04:19:07;;;;;;;8.23;6.85;;;33.90;49.90;;;;;;5011944;28;20576;-52
2023/06/19 04:21:33;;;;;;;8.73;6.95;;;34.30;49.50;;;;;;5012012;28;20478;-52
2023/06/19 04:23:58;;;;;;;8.02;7.20;;;34.70;48.90;;;;;;5011823;28;20029;-53
2023/06/19 04:26:24;;;;;;;8.55;7.07;;;35.10;48.40;;;;;;5011720;28;20033;-53
2023/06/19 04:28:50;;;;;;;8.88;7.35;;;35.50;47.80;;;;;;5011837;28;20030;-52
2023/06/19 04:31:18;;;;;;;10.68;7.22;;;35.90;47.30;;;;;;5011806;28;20075;-53
2023/06/19 04:33:45;;;;;;;10.27;6.82;;;36.30;47.10;;;;;;5012063;28;20084;-53
2023/06/19 04:36:11;;;;;;;9.52;7.60;;;36.80;46.90;;;;;;5011986;28;20036;-51
2023/06/19 04:38:36;;;;;;;11.80;6.97;;;37.20;46.80;;;;;;5011434;28;20026;-54
2023/06/19 04:41:02;;;;;;;9.07;6.32;;;37.50;46.80;;;;;;5009902;28;20084;-49
2023/06/19 04:43:27;;;;;;;8.38;7.00;;;37.80;46.50;;;;;;5010219;28;20053;-53
2023/06/19 04:45:53;;;;;;;9.68;7.10;;;38.00;46.30;;;;;;5011727;28;20026;-52
2023/06/19 04:48:19;;;;;;;8.98;6.78;;;38.20;46.10;;;;;;5011320;28;20057;-51
2023/06/19 04:50:44;;;;;;;9.65;6.30;;;38.40;45.70;;;;;;5011284;28;20389;-51
2023/06/19 04:53:10;;;;;;;8.02;6.50;;;38.50;45.50;;;;;;5011383;28;20445;-52
2023/06/19 04:55:36;;;;;;;10.15;6.85;;;38.70;45.30;;;;;;5011472;28;20029;-54
2023/06/19 04:58:01;;;;;;;7.95;7.15;;;38.80;45.20;;;;;;5011863;28;20030;-51
2023/06/19 05:00:27;;;;;;;9.32;6.70;;;38.90;45.00;;;;;;5011438;28;20030;-54
2023/06/19 05:02:52;;;;;;;8.98;6.68;;;39.10;44.90;;;;;;5011488;28;20712;-51
2023/06/19 05:05:18;;;;;;;7.75;6.80;;;39.20;44.60;;;;;;5011295;28;20029;-53
2023/06/19 05:07:45;;;;;;;7.75;6.78;;;39.40;44.50;;;;;;5011377;28;20123;-53
2023/06/19 05:10:10;;;;;;;8.20;7.13;;;39.50;44.50;;;;;;5011363;28;20034;-52
2023/06/19 05:12:36;;;;;;;11.18;7.07;;;39.60;44.40;;;;;;5011331;28;20103;-53
2023/06/19 05:15:02;;;;;;;8.77;7.00;;;39.60;44.30;;;;;;5011141;28;20582;-53
2023/06/19 05:17:28;;;;;;;8.95;6.82;;;39.70;44.10;;;;;;5011092;28;20030;-53
2023/06/19 05:19:53;;;;;;;8.55;7.47;;;39.70;43.80;;;;;;5011200;28;20454;-51
2023/06/19 05:22:21;;;;;;;8.35;6.80;;;39.60;43.40;;;;;;5011532;28;20026;-53
2023/06/19 05:24:47;;;;;;;8.25;7.30;;;39.30;43.50;;;;;;5015135;28;20022;-53
2023/06/19 05:27:12;;;;;;;9.07;7.57;;;38.70;43.70;;;;;;5013856;28;20030;-52
2023/06/19 05:29:38;;;;;;;8.73;7.05;;;37.80;44.60;;;;;;5013906;28;20137;-53
2023/06/19 05:32:04;;;;;;;9.90;7.82;;;37.00;45.60;;;;;;5012831;28;20026;-51
2023/06/19 05:34:30;;;;;;;10.32;8.48;;;36.10;46.40;;;;;;5014975;28;20582;-53
2023/06/19 05:36:57;;;;;;;12.23;7.25;;;35.30;47.50;;;;;;5014973;28;20124;-51
2023/06/19 05:39:22;;;;;;;9.45;7.60;;;34.50;48.30;;;;;;5014422;28;20064;-50
2023/06/19 05:41:48;;;;;;;12.63;8.18;;;33.70;49.60;;;;;;5014250;28;20485;-50
2023/06/19 05:44:15;;;;;;;8.23;7.22;;;33.00;50.50;;;;;;5013894;28;20045;-53
2023/06/19 05:46:41;;;;;;;16.02;8.20;;;32.40;51.10;;;;;;5014420;28;20030;-52
2023/06/19 05:49:07;;;;;;;10.25;7.75;;;31.90;51.80;;;;;;5014023;28;20405;-49
2023/06/19 05:51:33;;;;;;;10.98;7.90;;;31.40;52.60;;;;;;5012633;28;20257;-52
2023/06/19 05:54:03;;;;;;;11.43;8.25;;;30.90;53.20;;;;;;5012946;28;20452;-50
2023/06/19 05:56:29;;;;;;;7.78;6.93;;;30.40;54.10;;;;;;5001032;28;20038;-52
2023/06/19 05:58:55;;;;;;;12.20;8.38;;;30.00;54.70;;;;;;4995397;28;20058;-53
2023/06/19 06:01:20;;;;;;;10.85;7.72;;;29.60;55.30;;;;;;5014731;28;20532;-51
2023/06/19 06:03:46;;;;;;;10.02;7.57;;;29.30;55.70;;;;;;5014423;28;20104;-52
2023/06/19 06:06:12;;;;;;;9.75;8.32;;;29.00;56.30;;;;;;5013653;28;20033;-51
2023/06/19 06:08:37;;;;;;;8.10;7.20;;;28.90;56.80;;;;;;5013186;28;20057;-48
2023/06/19 06:11:03;;;;;;;9.52;7.97;;;28.70;57.20;;;;;;5020068;28;20039;-51
2023/06/19 06:13:29;;;;;;;10.68;8.00;;;28.60;58.40;;;;;;5013059;28;20087;-52
2023/06/19 06:15:54;;;;;;;10.07;7.43;;;28.50;58.30;;;;;;5012924;28;20050;-51
2023/06/19 06:18:20;;;;;;;9.70;7.93;;;28.40;58.50;;;;;;5007430;28;20041;-51
2023/06/19 06:20:45;;;;;;;9.55;7.40;;;28.30;58.90;;;;;;5005506;28;20032;-53
2023/06/19 06:23:11;;;;;;;9.57;8.18;;;28.20;59.10;;;;;;5012467;28;20026;-50
2023/06/19 06:25:37;;;;;;;9.85;7.93;;;28.10;59.00;;;;;;5006196;28;20060;-51
2023/06/19 06:28:02;;;;;;;12.27;8.38;;;27.90;58.90;;;;;;5008012;28;20489;-52
2023/06/19 06:30:28;;;;;;;9.32;8.32;;;27.90;59.40;;;;;;5006329;28;20393;-51
2023/06/19 06:32:54;;;;;;;10.65;8.02;;;27.70;59.40;;;;;;5010190;28;20033;-49
2023/06/19 06:35:20;;;;;;;9.07;7.63;;;27.60;59.50;;;;;;5011004;28;20076;-47
2023/06/19 06:37:46;;;;;;;11.80;8.07;;;27.40;59.70;;;;;;5005791;28;20052;-48
2023/06/19 06:40:11;;;;;;;10.68;7.20;;;27.30;59.90;;;;;;5002664;28;20034;-50
2023/06/19 06:42:38;;;;;;;10.68;8.57;;;27.30;60.20;;;;;;4999179;28;20441;-52
2023/06/19 06:45:06;;;;;;;10.25;8.05;;;27.20;60.50;;;;;;5000615;28;20022;-51
2023/06/19 06:47:32;;;;;;;11.95;7.35;;;27.10;60.80;;;;;;4997766;28;20023;-50
2023/06/19 06:49:57;;;;;;;8.60;7.13;;;27.10;61.10;;;;;;4998957;28;20030;-52
2023/06/19 06:52:23;;;;;;;9.82;8.55;;;27.00;60.90;;;;;;4997447;28;20117;-50
2023/06/19 06:54:49;;;;;;;10.10;7.75;;;27.00;61.40;;;;;;4996465;28;20030;-52
2023/06/19 06:57:15;;;;;;;10.13;7.85;;;27.00;62.10;;;;;;5002398;28;20029;-50
2023/06/19 06:59:40;;;;;;;11.95;8.15;;;26.90;61.70;;;;;;5004031;28;20088;-52
2023/06/19 07:02:06;;;;;;;8.88;7.55;;;26.90;62.10;;;;;;5001953;28;20034;-47
2023/06/19 07:04:32;;;;;;;8.98;7.70;;;26.90;62.40;;;;;;5004432;28;20021;-49
2023/06/19 07:06:58;;;;;;;10.63;7.72;;;26.80;62.40;;;;;;4998906;28;20563;-49
2023/06/19 07:09:23;;;;;;;10.05;7.55;;;26.80;62.70;;;;;;5004704;28;20065;-52
2023/06/19 07:11:49;;;;;;;12.57;7.80;;;26.80;63.00;;;;;;5000623;28;20615;-48
2023/06/19 07:14:17;;;;;;;9.13;7.60;;;26.80;63.40;;;;;;5003053;28;20073;-47
2023/06/19 07:16:45;;;;;;;9.60;7.38;;;26.70;63.30;;;;;;5000827;28;20045;-46
2023/06/19 07:19:11;;;;;;;10.95;8.07;;;26.70;63.50;;;;;;5001335;28;20049;-48
2023/06/19 07:21:38;;;;;;;9.70;7.32;;;26.70;63.60;;;;;;5005288;28;20156;-47
2023/06/19 07:24:04;;;;;;;10.27;7.50;;;26.70;63.50;;;;;;4998812;28;20434;-49
2023/06/19 07:26:30;;;;;;;10.75;7.22;;;26.70;63.80;;;;;;5015402;28;20136;-48
2023/06/19 07:28:56;;;;;;;8.23;6.90;;;26.70;64.20;;;;;;5012978;28;20549;-47
2023/06/19 07:31:21;;;;;;;9.45;7.57;;;26.60;63.70;;;;;;5011570;28;20036;-46
2023/06/19 07:33:47;;;;;;;8.68;6.95;;;26.60;63.70;;;;;;5002941;28;20038;-46
2023/06/19 07:36:14;;;;;;;9.70;7.50;;;26.60;63.70;;;;;;5002473;28;20049;-49
2023/06/19 07:38:40;;;;;;;9.88;7.10;;;26.60;64.00;;;;;;5007752;28;20026;-47
2023/06/19 07:41:08;;;;;;;8.27;6.90;;;26.60;63.90;;;;;;5005561;28;20032;-49
2023/06/19 07:43:34;;;;;;;8.77;6.80;;;26.60;64.10;;;;;;5013038;28;20078;-48
2023/06/19 07:45:59;;;;;;;8.77;6.75;;;26.60;64.10;;;;;;5003645;28;20120;-49
2023/06/19 07:48:25;;;;;;;8.68;7.10;;;26.50;64.40;;;;;;5002899;28;20037;-49
2023/06/19 07:50:51;;;;;;;8.90;6.75;;;26.60;64.30;;;;;;5000237;28;20037;-49
2023/06/19 07:53:16;;;;;;;8.40;6.97;;;26.60;64.20;;;;;;4998065;28;20101;-48
2023/06/19 07:55:42;;;;;;;9.15;6.28;;;26.60;64.10;;;;;;5003569;28;20033;-49
2023/06/19 07:58:08;;;;;;;10.38;6.47;;;26.60;64.60;;;;;;4999842;28;20034;-50
2023/06/19 08:00:33;;;;;;;7.18;5.85;;;26.50;64.60;;;;;;4999974;28;20034;-49
2023/06/19 08:02:59;;;;;;;8.43;6.53;;;26.50;64.70;;;;;;5001323;28;20482;-51
2023/06/19 08:05:25;;;;;;;8.88;6.97;;;26.60;65.10;;;;;;5004063;28;20038;-50
2023/06/19 08:07:51;;;;;;;9.68;6.40;;;26.50;65.10;;;;;;5003042;28;20509;-49
2023/06/19 08:10:17;;;;;;;7.45;6.18;;;26.50;65.00;;;;;;4997834;28;20026;-50
2023/06/19 08:12:43;;;;;;;7.72;6.43;;;26.50;64.90;;;;;;4998902;28;20555;-49
2023/06/19 08:15:10;;;;;;;9.13;6.63;;;26.50;64.80;;;;;;5003750;28;20054;-49
2023/06/19 08:17:35;;;;;;;9.40;7.28;;;26.40;65.20;;;;;;5001377;28;20462;-47
2023/06/19 08:20:03;;;;;;;10.20;6.57;;;26.40;64.90;;;;;;5003285;28;20030;-47
2023/06/19 08:22:29;;;;;;;8.85;6.72;;;26.40;64.90;;;;;;5002550;28;20034;-50
2023/06/19 08:24:54;;;;;;;7.70;6.55;;;26.40;65.00;;;;;;4998985;28;20037;-49
2023/06/19 08:27:20;;;;;;;7.10;6.05;;;26.30;64.90;;;;;;5001498;28;20110;-52
2023/06/19 08:29:46;;;;;;;7.75;6.13;;;26.30;64.40;;;;;;4996068;28;20097;-49
2023/06/19 08:32:11;;;;;;;8.55;6.55;;;26.40;64.00;;;;;;4999099;28;20132;-47
2023/06/19 08:34:38;;;;;;;7.32;5.68;;;26.30;63.80;;;;;;4997623;28;20529;-49
2023/06/19 08:37:04;;;;;;;8.10;5.47;;;26.30;64.00;;;;;;5003986;28;20111;-48
2023/06/19 08:39:30;;;;;;;7.20;5.53;;;26.30;63.10;;;;;;5006233;28;20057;-52
2023/06/19 08:41:55;;;;;;;7.68;5.93;;;26.20;62.20;;;;;;5002158;28;20037;-51
2023/06/19 08:44:21;;;;;;;8.32;5.45;;;26.20;61.90;;;;;;5006363;28;20018;-49
2023/06/19 08:46:47;;;;;;;6.28;5.40;;;26.20;61.50;;;;;;5003815;28;20026;-50
2023/06/19 08:49:13;;;;;;;10.50;5.68;;;26.20;61.30;;;;;;4998762;28;20026;-50
2023/06/19 08:51:40;;;;;;;6.93;5.10;;;26.20;61.10;;;;;;5000328;28;20297;-50
2023/06/19 08:54:07;;;;;;;6.80;5.53;;;26.20;60.70;;;;;;5002982;28;20038;-48
2023/06/19 08:56:34;;;;;;;6.47;5.07;;;26.20;60.20;;;;;;4999847;28;20068;-50
2023/06/19 08:59:14;;;;;;;7.05;5.57;;;26.20;60.20;;;;;;5010733;28;20100;-47
2023/06/19 09:01:40;;;;;;;7.82;5.78;;;26.20;59.70;;;;;;5006309;28;20034;-48
2023/06/19 09:04:13;;;;;;;7.32;5.70;;;26.20;59.70;;;;;;5003755;28;20030;-52
2023/06/19 09:06:48;;;;;;;7.30;5.22;;;26.20;59.80;;;;;;4999987;28;20106;-50
2023/06/19 09:09:15;;;;;;;9.38;5.35;;;26.20;58.40;;;;;;5003096;28;20026;-48
2023/06/19 09:11:43;;;;;;;6.90;5.18;;;26.20;58.40;;;;;;4994559;28;20580;-47
2023/06/19 09:14:10;;;;;;;8.38;5.57;;;26.20;58.00;;;;;;5004859;28;20061;-48
2023/06/19 09:16:40;;;;;;;8.10;5.65;;;26.20;57.80;;;;;;5002548;28;20133;-49
2023/06/19 09:19:07;;;;;;;7.82;5.30;;;26.20;58.20;;;;;;5003537;28;20065;-48
2023/06/19 09:21:37;;;;;;;6.63;5.38;;;26.20;58.50;;;;;;5005105;28;20038;-50
2023/06/19 09:24:11;;;;;;;7.63;5.57;;;26.20;58.00;;;;;;5000891;28;20049;-47
2023/06/19 09:26:37;;;;;;;7.40;5.55;;;26.20;58.50;;;;;;5003924;28;20172;-49
2023/06/19 09:29:15;;;;;;;6.60;4.90;;;26.10;58.20;;;;;;5002624;28;20492;-51
2023/06/19 09:31:41;;;;;;;6.97;5.30;;;26.20;57.70;;;;;;5003797;28;20040;-50
2023/06/19 09:34:08;;;;;;;8.77;5.25;;;26.10;57.10;;;;;;5009930;28;20026;-52
2023/06/19 09:36:35;;;;;;;10.30;4.82;;;26.10;56.50;;;;;;5011494;28;20029;-49
2023/06/19 09:39:02;;;;;;;7.72;5.05;;;26.10;55.70;;;;;;5005537;28;20108;-50
2023/06/19 09:41:30;;;;;;;9.15;4.90;;;26.10;55.10;;;;;;5006527;28;20027;-51
2023/06/19 09:43:59;;;;;;;6.25;4.82;;;26.10;54.80;;;;;;5007291;28;20037;-51
2023/06/19 09:46:30;;;;;;;9.57;5.18;;;26.10;54.80;;;;;;5013964;28;20085;-50
2023/06/19 09:49:01;;;;;;;7.28;5.00;;;26.10;54.40;;;;;;5021571;28;20040;-53
2023/06/19 09:51:37;;;;;;;7.40;5.05;;;26.10;54.10;;;;;;5001119;28;20030;-55
2023/06/19 09:54:05;;;;;;;7.32;5.00;;;26.10;54.20;;;;;;5003536;28;20045;-52
2023/06/19 09:56:31;;;;;;;6.00;4.60;;;26.10;53.80;;;;;;5013435;28;20042;-48
2023/06/19 09:59:00;;;;;;;6.00;5.00;;;26.10;52.80;;;;;;5008737;28;20520;-49
2023/06/19 10:01:28;;;;;;;6.38;4.75;;;26.10;53.00;;;;;;5013247;28;20030;-49
2023/06/19 10:04:05;;;;;;;6.65;4.93;;;26.10;52.40;;;;;;5009403;28;20033;-50
2023/06/19 10:06:30;;;;;;;7.03;4.93;;;26.10;51.70;;;;;;5009209;28;20022;-52
2023/06/19 10:09:06;;;;;;;6.60;4.63;;;26.10;51.50;;;;;;5012940;28;20339;-49
2023/06/19 10:11:46;;;;;;;6.82;4.82;;;26.10;51.40;;;;;;5019576;28;20107;-50
2023/06/19 10:14:12;;;;;;;8.20;5.10;;;26.10;51.20;;;;;;5009263;28;20074;-50
2023/06/19 10:16:40;;;;;;;5.70;4.75;;;26.10;51.20;;;;;;5002776;28;20311;-50
2023/06/19 10:19:15;;;;;;;6.45;4.85;;;26.10;50.80;;;;;;5011331;28;20038;-51
2023/06/19 10:21:53;;;;;;;6.95;4.88;;;26.10;50.70;;;;;;5010983;28;20030;-48
2023/06/19 10:24:19;;;;;;;8.73;5.38;;;26.10;51.00;;;;;;5000347;28;20030;-52
2023/06/19 10:27:00;;;;;;;7.88;4.60;;;26.20;50.40;;;;;;5004176;28;20021;-51
2023/06/19 10:29:27;;;;;;;6.00;4.53;;;26.20;50.00;;;;;;5003230;28;20486;-52
2023/06/19 10:31:54;;;;;;;6.28;4.60;;;26.20;49.90;;;;;;5001982;28;20045;-51
2023/06/19 10:34:19;;;;;;;6.07;4.78;;;26.20;49.70;;;;;;5005460;28;20037;-52
2023/06/19 10:36:45;;;;;;;8.27;5.20;;;26.20;49.80;;;;;;5004795;28;20377;-51
2023/06/19 10:39:10;;;;;;;7.07;5.03;;;26.30;48.60;;;;;;5001139;28;20473;-51
2023/06/19 10:41:40;;;;;;;6.10;4.80;;;26.20;48.70;;;;;;5002532;28;20128;-53
2023/06/19 10:44:12;;;;;;;7.28;4.85;;;26.30;48.90;;;;;;4999091;28;20433;-53
2023/06/19 10:46:40;;;;;;;5.97;4.40;;;26.30;49.30;;;;;;4996021;28;20129;-52
2023/06/19 10:49:07;;;;;;;6.50;4.38;;;26.30;49.60;;;;;;5006191;28;20035;-49
2023/06/19 10:51:37;;;;;;;8.35;4.85;;;26.30;49.60;;;;;;4999043;28;20029;-52
2023/06/19 10:54:03;;;;;;;5.72;4.82;;;26.30;49.50;;;;;;5008577;28;20189;-51
2023/06/19 10:56:29;;;;;;;8.20;4.35;;;26.30;50.10;;;;;;5000556;28;20026;-53
2023/06/19 10:59:03;;;;;;;6.80;5.28;;;26.30;50.30;;;;;;5004764;28;20382;-54
2023/06/19 11:01:36;;;;;;;6.05;4.88;;;26.30;50.20;;;;;;5000314;28;20052;-55
2023/06/19 11:04:04;;;;;;;6.55;4.75;;;26.30;49.90;;;;;;4999141;28;20030;-53
2023/06/19 11:06:30;;;;;;;6.35;4.85;;;26.30;49.80;;;;;;5002010;28;20022;-54
2023/06/19 11:08:56;;;;;;;6.65;4.35;;;26.30;49.70;;;;;;5003798;28;20059;-55
2023/06/19 11:11:21;;;;;;;8.88;4.43;;;26.30;49.50;;;;;;5003512;28;20062;-52
2023/06/19 11:13:47;;;;;;;4.85;3.97;;;26.30;49.10;;;;;;5003649;28;20080;-50
2023/06/19 11:16:14;;;;;;;6.65;4.35;;;26.30;49.20;;;;;;5001363;28;20041;-52
2023/06/19 11:18:40;;;;;;;7.63;4.72;;;26.30;49.30;;;;;;4999616;28;20524;-52
2023/06/19 11:21:06;;;;;;;6.28;4.45;;;26.20;49.70;;;;;;5002083;28;20034;-54
2023/06/19 11:23:31;;;;;;;5.45;4.43;;;26.20;49.80;;;;;;5001733;28;20026;-53
2023/06/19 11:26:04;;;;;;;5.35;4.30;;;26.20;49.60;;;;;;5000823;28;20077;-53
2023/06/19 11:28:30;;;;;;;5.60;4.10;;;26.20;49.40;;;;;;5000203;28;20490;-53
2023/06/19 11:31:03;;;;;;;6.35;4.53;;;26.20;49.50;;;;;;5002454;28;20038;-52
2023/06/19 11:33:30;;;;;;;5.55;4.15;;;26.20;49.70;;;;;;5009936;28;20037;-51
2023/06/19 11:36:00;;;;;;;5.93;4.10;;;26.20;49.30;;;;;;5024166;28;20065;-51
2023/06/19 11:38:26;;;;;;;5.93;4.32;;;26.30;49.70;;;;;;5013880;28;20037;-52
2023/06/19 11:40:54;;;;;;;6.88;4.30;;;26.30;49.40;;;;;;5003171;28;20037;-51
2023/06/19 11:43:30;;;;;;;7.45;4.10;;;26.30;48.90;;;;;;5002855;28;20472;-52
2023/06/19 11:46:06;;;;;;;4.20;3.63;;;26.30;49.00;;;;;;5008811;28;20543;-51
2023/06/19 11:48:33;;;;;;;8.40;3.85;;;26.30;48.40;;;;;;5004212;28;20033;-50
2023/06/19 11:50:58;;;;;;;6.13;3.75;;;26.30;48.80;;;;;;5009141;28;20042;-51
2023/06/19 12:39:34;;;;;;;5.13;3.70;;;26.10;49.70;;;;;;5051926;28;20629;-53
2023/06/19 12:42:00;;;;;;;4.07;3.42;;;26.20;49.90;;;;;;5001195;28;20045;-49
2023/06/19 12:44:25;;;;;;;5.47;3.72;;;26.20;49.50;;;;;;5003598;28;20041;-55
2023/06/19 12:46:52;;;;;;;4.88;3.40;;;26.20;49.40;;;;;;5001397;28;20041;-54
2023/06/19 12:49:18;;;;;;;5.00;3.38;;;26.20;48.70;;;;;;5013133;28;20034;-52
2023/06/19 12:51:43;;;;;;;5.85;4.03;;;26.20;48.60;;;;;;4998851;28;20026;-58
2023/06/19 12:54:09;;;;;;;5.18;3.53;;;26.30;48.90;;;;;;5002296;28;20030;-56
2023/06/19 12:56:35;;;;;;;4.45;3.67;;;26.30;49.10;;;;;;4996588;28;20113;-53
2023/06/19 12:59:01;;;;;;;4.65;3.28;;;26.30;48.90;;;;;;4992790;28;20034;-56
2023/06/19 13:01:26;;;;;;;4.95;3.40;;;26.30;48.90;;;;;;4999511;28;20056;-54
2023/06/19 13:03:52;;;;;;;5.53;3.45;;;26.30;48.80;;;;;;4994836;28;20029;-52
2023/06/19 13:06:19;;;;;;;6.32;3.92;;;26.40;48.60;;;;;;4999639;28;20025;-55
2023/06/19 13:08:45;;;;;;;6.07;3.90;;;26.40;49.40;;;;;;4982478;28;20489;-56
2023/06/19 13:11:10;;;;;;;5.00;3.67;;;26.40;49.30;;;;;;4998460;28;20151;-53
2023/06/19 13:13:36;;;;;;;5.95;3.83;;;26.40;50.10;;;;;;5002319;28;20042;-52
2023/06/19 13:16:02;;;;;;;5.35;3.45;;;26.40;49.90;;;;;;5003114;28;20057;-55
2023/06/19 13:18:27;;;;;;;5.82;3.90;;;26.40;49.80;;;;;;5004599;28;20416;-54
2023/06/19 13:20:53;;;;;;;6.03;3.88;;;26.40;49.60;;;;;;5000256;28;20034;-53
2023/06/19 13:23:18;;;;;;;6.13;3.97;;;26.40;49.40;;;;;;4987224;28;20385;-53
2023/06/19 13:25:44;;;;;;;4.38;3.65;;;26.40;49.80;;;;;;5007139;28;20054;-55